Time;durP1;ratioP1;P1;durP2;ratioP2;P2;SDS_P1;SDS_P2;PMS_P1;PMS_P2;Temp;Humidity;BMP_temperature;BMP_pressure;BME280_temperature;BME280_humidity;BME280_pressure;Samples;Min_cycle;Max_cycle;Signal;HPM_P1;HPM_P2
2022/03/08 00:01:32;;;;;;;30.73;17.63;;;-3.10;99.90;;;;;;6212784;23;20128;-81
2022/03/08 00:04:25;;;;;;;29.17;17.17;;;-3.20;99.90;;;;;;6213631;23;20099;-84
2022/03/08 00:07:13;;;;;;;32.83;18.42;;;-3.20;99.90;;;;;;6212695;23;20047;-83
2022/03/08 00:10:00;;;;;;;33.88;19.58;;;-3.20;99.90;;;;;;6194444;23;20032;-83
2022/03/08 00:12:48;;;;;;;34.63;18.60;;;-3.30;99.90;;;;;;6215452;23;20321;-83
2022/03/08 00:15:36;;;;;;;30.60;19.20;;;-3.40;99.90;;;;;;6191580;23;20073;-82
2022/03/08 00:18:26;;;;;;;38.17;19.55;;;-3.20;99.90;;;;;;6212827;23;20028;-83
2022/03/08 00:21:14;;;;;;;33.33;18.88;;;-3.10;99.90;;;;;;6191763;23;20020;-83
2022/03/08 00:24:04;;;;;;;31.00;17.63;;;-3.00;99.90;;;;;;6214535;23;20038;-83
2022/03/08 00:26:53;;;;;;;33.53;18.75;;;-3.00;99.90;;;;;;6190935;23;20094;-82
2022/03/08 00:29:40;;;;;;;33.17;19.42;;;-3.10;99.90;;;;;;6214534;23;20033;-83
2022/03/08 00:32:40;;;;;;;32.00;18.13;;;-3.10;99.90;;;;;;6193015;23;20102;-84
2022/03/08 00:35:30;;;;;;;30.15;18.13;;;-3.00;99.90;;;;;;6212123;23;20024;-83
2022/03/08 00:38:20;;;;;;;29.60;18.00;;;-3.10;99.90;;;;;;6192726;23;20047;-84
2022/03/08 00:41:07;;;;;;;37.17;19.10;;;-3.20;99.90;;;;;;6213787;23;20020;-83
2022/03/08 00:43:57;;;;;;;28.42;17.08;;;-3.20;99.90;;;;;;6212868;23;20028;-83
2022/03/08 00:46:51;;;;;;;28.50;17.88;;;-3.20;99.90;;;;;;6213987;23;20032;-83
2022/03/08 00:49:40;;;;;;;32.75;18.05;;;-3.20;99.90;;;;;;6212852;23;20395;-83
2022/03/08 00:52:29;;;;;;;30.27;18.38;;;-3.20;99.90;;;;;;6212893;23;20292;-84
2022/03/08 00:55:18;;;;;;;29.27;18.73;;;-3.10;99.90;;;;;;6193153;23;20033;-83
2022/03/08 00:58:07;;;;;;;30.65;17.02;;;-3.20;99.90;;;;;;6214696;23;20124;-83
2022/03/08 01:00:54;;;;;;;32.75;18.02;;;-3.30;99.90;;;;;;6211958;23;20036;-83
2022/03/08 01:03:44;;;;;;;33.80;18.40;;;-3.30;99.90;;;;;;6190547;23;20090;-83
2022/03/08 01:06:31;;;;;;;31.65;17.67;;;-3.40;99.90;;;;;;6214156;23;20102;-83
2022/03/08 01:09:21;;;;;;;30.80;18.38;;;-3.40;99.90;;;;;;6217291;23;20028;-84
2022/03/08 01:12:09;;;;;;;30.55;17.13;;;-3.40;99.90;;;;;;6214558;23;20035;-83
2022/03/08 01:14:56;;;;;;;30.85;16.95;;;-3.40;99.90;;;;;;6214365;23;20028;-82
2022/03/08 01:17:47;;;;;;;29.02;17.63;;;-3.50;99.90;;;;;;6193477;23;20029;-83
2022/03/08 01:20:35;;;;;;;33.63;17.10;;;-3.40;99.90;;;;;;6217144;23;20041;-83
2022/03/08 01:23:30;;;;;;;31.15;17.77;;;-3.40;99.90;;;;;;6214444;23;20096;-83
2022/03/08 01:26:17;;;;;;;28.08;17.70;;;-3.40;99.90;;;;;;6215641;23;20388;-83
2022/03/08 01:29:04;;;;;;;31.13;17.73;;;-3.50;99.90;;;;;;6213577;23;20032;-83
2022/03/08 01:31:52;;;;;;;31.58;16.95;;;-3.50;99.90;;;;;;6213991;23;20408;-82
2022/03/08 01:34:39;;;;;;;30.90;18.00;;;-3.60;99.90;;;;;;6192691;23;20016;-83
2022/03/08 01:37:26;;;;;;;32.30;17.63;;;-3.70;99.90;;;;;;6216220;23;20098;-83
2022/03/08 01:40:18;;;;;;;31.58;17.92;;;-3.70;99.90;;;;;;6187577;23;20080;-82
2022/03/08 01:43:05;;;;;;;23.87;14.03;;;-3.90;99.90;;;;;;6190805;23;20025;-83
2022/03/08 01:45:52;;;;;;;29.75;16.73;;;-3.80;99.90;;;;;;6214075;23;20339;-83
2022/03/08 01:48:40;;;;;;;35.95;18.30;;;-3.80;1.00;;;;;;6215810;23;20029;-82
2022/03/08 01:51:29;;;;;;;31.83;17.02;;;-3.80;1.00;;;;;;6193366;23;20043;-83
2022/03/08 01:54:16;;;;;;;30.73;17.27;;;-3.70;99.90;;;;;;6217344;23;20024;-83
2022/03/08 01:57:04;;;;;;;36.03;18.05;;;-3.70;99.90;;;;;;6192380;23;20020;-83
2022/03/08 01:59:55;;;;;;;32.38;18.77;;;-3.70;1.00;;;;;;6214115;23;20028;-82
2022/03/08 02:02:43;;;;;;;28.63;17.13;;;-3.80;1.00;;;;;;6213906;23;20055;-83
2022/03/08 02:05:31;;;;;;;30.52;17.02;;;-3.80;1.00;;;;;;6214917;23;20048;-83
2022/03/08 02:08:18;;;;;;;30.60;16.75;;;-3.80;1.00;;;;;;6215236;23;20098;-83
2022/03/08 02:11:05;;;;;;;32.38;16.65;;;-3.80;1.00;;;;;;6215828;23;20028;-83
2022/03/08 02:13:52;;;;;;;29.05;16.48;;;-3.70;1.00;;;;;;6215884;23;20021;-83
2022/03/08 02:16:40;;;;;;;29.38;16.30;;;-3.60;1.00;;;;;;6213796;23;20033;-83
2022/03/08 02:19:27;;;;;;;28.02;16.95;;;-3.60;99.90;;;;;;6216397;23;20028;-83
2022/03/08 02:22:14;;;;;;;26.50;15.60;;;-3.40;99.90;;;;;;6214144;23;20025;-83
2022/03/08 02:25:03;;;;;;;27.83;16.60;;;-3.40;99.90;;;;;;6194456;23;20047;-82
2022/03/08 02:27:57;;;;;;;30.88;17.05;;;-3.40;99.90;;;;;;6213696;23;20063;-83
2022/03/08 02:30:44;;;;;;;35.65;16.20;;;-3.50;99.90;;;;;;6192706;23;20036;-83
2022/03/08 02:33:32;;;;;;;28.08;16.30;;;-3.60;99.90;;;;;;6213891;23;20352;-83
2022/03/08 02:36:19;;;;;;;31.00;16.30;;;-3.60;99.90;;;;;;6213537;23;20032;-83
2022/03/08 02:39:06;;;;;;;27.10;15.77;;;-3.60;99.90;;;;;;6214241;23;20745;-83
2022/03/08 02:41:56;;;;;;;26.88;15.13;;;-3.60;99.90;;;;;;6212978;23;20317;-83
2022/03/08 02:44:45;;;;;;;28.52;15.55;;;-3.60;99.90;;;;;;6213378;23;20032;-83
2022/03/08 02:47:35;;;;;;;30.35;15.48;;;-3.60;99.90;;;;;;6214554;23;20179;-83
2022/03/08 02:50:27;;;;;;;25.55;16.17;;;-3.60;99.90;;;;;;6212033;23;20036;-83
2022/03/08 02:53:14;;;;;;;24.20;15.52;;;-3.60;99.90;;;;;;6216846;23;20032;-82
2022/03/08 02:56:02;;;;;;;27.98;16.00;;;-3.60;99.90;;;;;;6220843;23;20024;-83
2022/03/08 02:58:50;;;;;;;25.67;14.43;;;-3.60;99.90;;;;;;6193284;23;20033;-82
2022/03/08 03:01:39;;;;;;;27.88;15.02;;;-3.50;99.90;;;;;;6215806;23;20020;-83
2022/03/08 03:04:27;;;;;;;23.00;14.93;;;-3.50;99.90;;;;;;6196765;23;20028;-82
2022/03/08 03:07:17;;;;;;;26.67;15.50;;;-3.60;99.90;;;;;;6215714;23;20043;-82
2022/03/08 03:10:07;;;;;;;32.17;15.43;;;-3.60;99.90;;;;;;6213862;23;20036;-82
2022/03/08 03:12:58;;;;;;;31.40;16.25;;;-3.60;99.90;;;;;;6216295;23;20102;-83
2022/03/08 03:15:48;;;;;;;26.60;15.27;;;-3.60;99.90;;;;;;6216244;23;20365;-83
2022/03/08 03:18:35;;;;;;;26.05;15.20;;;-3.60;99.90;;;;;;6194956;23;20103;-83
2022/03/08 03:21:23;;;;;;;26.27;15.52;;;-3.70;99.90;;;;;;6191947;23;20025;-83
2022/03/08 03:24:10;;;;;;;24.23;15.50;;;-3.60;99.90;;;;;;6215945;23;20044;-82
2022/03/08 03:26:57;;;;;;;24.77;14.57;;;-3.40;99.90;;;;;;6214954;23;20423;-82
2022/03/08 03:29:45;;;;;;;23.63;14.63;;;-3.50;99.90;;;;;;6215308;23;20175;-82
2022/03/08 03:32:35;;;;;;;24.60;15.10;;;-3.50;99.90;;;;;;6215146;23;20040;-83
2022/03/08 03:35:25;;;;;;;27.33;15.05;;;-3.60;99.90;;;;;;6214422;23;20617;-83
2022/03/08 03:38:12;;;;;;;27.30;15.52;;;-3.70;99.90;;;;;;6217592;23;20024;-83
2022/03/08 03:40:59;;;;;;;32.20;14.60;;;-3.80;99.90;;;;;;6212666;23;20409;-82
2022/03/08 03:43:47;;;;;;;23.88;14.77;;;-3.80;99.90;;;;;;6191101;23;20024;-82
2022/03/08 03:46:36;;;;;;;23.67;14.60;;;-3.80;99.90;;;;;;6172840;23;20080;-83
2022/03/08 03:49:26;;;;;;;23.27;14.45;;;-3.90;99.90;;;;;;6212765;23;20028;-83
2022/03/08 03:52:13;;;;;;;25.75;13.95;;;-3.90;99.90;;;;;;6212901;23;20029;-82
2022/03/08 03:55:01;;;;;;;25.40;14.63;;;-4.00;99.90;;;;;;6212447;23;20069;-83
2022/03/08 03:57:48;;;;;;;22.48;13.68;;;-4.00;99.90;;;;;;6213144;23;20024;-82
2022/03/08 04:00:40;;;;;;;23.23;13.43;;;-3.90;99.90;;;;;;6212810;23;20118;-83
2022/03/08 04:03:27;;;;;;;24.17;14.05;;;-3.80;99.90;;;;;;6214000;23;20339;-84
2022/03/08 04:06:14;;;;;;;24.77;13.60;;;-3.80;99.90;;;;;;6194645;23;20079;-85
2022/03/08 04:09:03;;;;;;;20.98;13.68;;;-3.70;99.90;;;;;;6214807;23;20102;-84
2022/03/08 04:11:53;;;;;;;20.70;13.82;;;-3.80;99.90;;;;;;6215261;23;20066;-85
2022/03/08 04:14:43;;;;;;;29.77;13.40;;;-3.90;99.90;;;;;;6192495;23;20020;-85
2022/03/08 04:17:30;;;;;;;21.65;13.40;;;-4.00;99.90;;;;;;6214661;23;20036;-83
2022/03/08 04:20:19;;;;;;;24.45;14.07;;;-4.10;99.90;;;;;;6214770;23;20044;-83
2022/03/08 04:23:06;;;;;;;22.13;13.38;;;-4.10;99.90;;;;;;6213405;23;20052;-84
2022/03/08 04:25:54;;;;;;;26.10;13.77;;;-4.20;99.90;;;;;;6214377;23;20431;-83
2022/03/08 04:28:42;;;;;;;23.52;12.93;;;-4.20;99.90;;;;;;6213957;23;20275;-84
2022/03/08 04:31:32;;;;;;;22.92;12.88;;;-4.20;1.00;;;;;;6214242;23;20024;-83
2022/03/08 04:34:19;;;;;;;22.70;14.32;;;-4.30;1.00;;;;;;6192060;23;20021;-83
2022/03/08 04:37:07;;;;;;;23.90;13.68;;;-4.30;1.00;;;;;;6214555;23;20028;-83
2022/03/08 04:39:57;;;;;;;26.92;13.68;;;-4.20;1.00;;;;;;6199443;23;20094;-84
2022/03/08 04:42:47;;;;;;;25.17;15.25;;;-4.30;1.00;;;;;;6226804;23;20659;-83
2022/03/08 04:45:37;;;;;;;25.02;14.48;;;-4.40;1.00;;;;;;6224761;23;20028;-85
2022/03/08 04:48:27;;;;;;;24.30;14.00;;;-4.40;1.00;;;;;;6214943;23;20029;-85
2022/03/08 04:51:14;;;;;;;25.85;14.55;;;-4.40;1.00;;;;;;6216723;23;20128;-83
2022/03/08 04:54:03;;;;;;;28.92;14.07;;;-4.40;1.00;;;;;;6193551;23;20051;-83
2022/03/08 04:56:51;;;;;;;27.98;14.07;;;-4.50;1.00;;;;;;6215193;23;20073;-83
2022/03/08 04:59:38;;;;;;;22.20;12.80;;;-4.50;1.00;;;;;;6194550;23;20120;-83
2022/03/08 05:02:25;;;;;;;26.00;13.93;;;-4.60;1.00;;;;;;6218190;23;20020;-84
2022/03/08 05:05:14;;;;;;;21.20;12.95;;;-4.70;1.00;;;;;;6216720;23;20142;-83
2022/03/08 05:08:03;;;;;;;22.67;14.05;;;-4.80;1.00;;;;;;6213481;23;20024;-83
2022/03/08 05:10:50;;;;;;;23.05;13.73;;;-4.80;1.00;;;;;;6210940;23;20028;-84
2022/03/08 05:13:37;;;;;;;22.25;12.85;;;-4.80;7.10;;;;;;6211325;23;20028;-83
2022/03/08 05:16:25;;;;;;;22.33;13.90;;;-4.70;1.00;;;;;;6216996;23;20059;-84
2022/03/08 05:19:14;;;;;;;24.67;13.80;;;-4.70;1.80;;;;;;6219162;23;20024;-83
2022/03/08 05:22:02;;;;;;;21.00;11.88;;;-4.60;28.40;;;;;;6215442;23;20031;-81
2022/03/08 05:24:49;;;;;;;19.25;10.98;;;-4.30;1.60;;;;;;6214222;23;20029;-82
2022/03/08 05:27:40;;;;;;;19.10;11.60;;;-4.10;1.00;;;;;;6215492;23;20095;-83
2022/03/08 05:30:30;;;;;;;20.85;12.48;;;-4.00;1.00;;;;;;6228239;23;20044;-84
2022/03/08 05:33:19;;;;;;;19.73;11.63;;;-3.90;1.00;;;;;;6227252;23;20016;-83
2022/03/08 05:36:06;;;;;;;17.20;10.52;;;-3.90;1.00;;;;;;6220597;23;20040;-83
2022/03/08 05:38:54;;;;;;;20.50;11.68;;;-3.80;1.00;;;;;;6217494;23;20028;-84
2022/03/08 05:41:41;;;;;;;20.02;10.45;;;-3.70;1.00;;;;;;6216775;23;20360;-83
2022/03/08 05:44:28;;;;;;;19.73;11.48;;;-3.70;1.00;;;;;;6195125;23;20080;-82
2022/03/08 05:47:18;;;;;;;20.13;11.38;;;-3.70;1.00;;;;;;6214902;23;20021;-84
2022/03/08 05:50:08;;;;;;;27.25;11.23;;;-3.70;1.00;;;;;;6216937;23;20031;-83
2022/03/08 05:52:55;;;;;;;18.48;10.75;;;-3.80;1.00;;;;;;6191880;23;20047;-84
2022/03/08 05:55:44;;;;;;;21.00;11.68;;;-3.80;1.00;;;;;;6214533;23;20031;-83
2022/03/08 05:58:31;;;;;;;22.70;13.10;;;-3.90;1.00;;;;;;6218688;23;20024;-85
2022/03/08 06:01:19;;;;;;;23.67;14.75;;;-4.10;1.00;;;;;;6216205;23;20032;-84
2022/03/08 06:04:06;;;;;;;22.67;13.80;;;-4.20;1.00;;;;;;6213724;23;20152;-82
2022/03/08 06:06:54;;;;;;;27.55;14.13;;;-4.30;1.00;;;;;;6212710;23;20025;-85
2022/03/08 06:09:41;;;;;;;20.65;12.65;;;-4.40;1.00;;;;;;6213683;23;20411;-84
2022/03/08 06:12:31;;;;;;;24.83;13.73;;;-4.50;1.00;;;;;;6214832;23;20083;-84
2022/03/08 06:15:18;;;;;;;22.30;13.20;;;-4.60;69.50;;;;;;6213532;23;20106;-85
2022/03/08 06:18:05;;;;;;;24.67;13.20;;;-4.60;98.00;;;;;;6215562;23;20040;-84
2022/03/08 06:20:53;;;;;;;25.92;13.90;;;-4.60;99.90;;;;;;6191961;23;20116;-84
2022/03/08 06:23:40;;;;;;;26.45;14.50;;;-4.60;99.90;;;;;;6213700;23;20051;-85
2022/03/08 06:26:31;;;;;;;31.35;14.50;;;-4.60;99.90;;;;;;6213495;23;20304;-84
2022/03/08 06:29:20;;;;;;;24.17;12.82;;;-4.60;99.90;;;;;;6213543;23;20451;-85
2022/03/08 06:32:10;;;;;;;20.45;12.57;;;-4.60;99.90;;;;;;6215315;23;20039;-84
2022/03/08 06:34:57;;;;;;;22.42;13.32;;;-4.60;99.90;;;;;;6215538;23;20025;-84
2022/03/08 06:37:45;;;;;;;23.48;11.82;;;-4.50;99.90;;;;;;6195140;23;20025;-85
2022/03/08 06:40:33;;;;;;;23.25;12.68;;;-4.20;99.90;;;;;;6214216;23;20073;-82
2022/03/08 06:43:20;;;;;;;21.80;12.18;;;-4.00;53.30;;;;;;6210324;23;20032;-83
2022/03/08 06:46:08;;;;;;;22.20;11.73;;;-3.70;1.00;;;;;;6191745;23;20032;-84
2022/03/08 06:48:57;;;;;;;17.33;11.02;;;-3.50;1.00;;;;;;6212953;23;20033;-84
2022/03/08 06:51:45;;;;;;;16.45;9.70;;;-3.00;1.00;;;;;;6213005;23;20035;-85
2022/03/08 06:54:38;;;;;;;19.92;11.10;;;-2.50;1.00;;;;;;6214826;23;20063;-85
2022/03/08 06:57:25;;;;;;;15.90;10.05;;;-1.90;99.90;;;;;;6194330;23;20025;-85
2022/03/08 07:00:13;;;;;;;16.33;9.93;;;-1.40;99.90;;;;;;6212111;23;20168;-85
2022/03/08 07:03:00;;;;;;;15.60;9.85;;;-1.10;99.90;;;;;;6214543;23;20040;-85
2022/03/08 07:05:48;;;;;;;15.65;10.40;;;-0.70;99.90;;;;;;6215763;23;20060;-84
2022/03/08 07:08:36;;;;;;;16.98;10.57;;;-0.50;99.90;;;;;;6211854;23;20056;-84
2022/03/08 07:11:26;;;;;;;18.50;11.00;;;-0.30;99.90;;;;;;6212789;23;20036;-85
2022/03/08 07:14:15;;;;;;;26.55;16.25;;;-0.20;99.90;;;;;;6215414;23;20028;-85
2022/03/08 07:17:03;;;;;;;26.80;15.65;;;0.00;99.90;;;;;;6214131;23;20021;-83
2022/03/08 07:19:53;;;;;;;18.00;12.95;;;0.20;99.90;;;;;;6214519;23;20024;-85
2022/03/08 07:22:41;;;;;;;20.20;11.13;;;0.20;99.90;;;;;;6194795;23;20086;-86
2022/03/08 07:25:29;;;;;;;19.23;12.05;;;0.30;99.90;;;;;;6192678;23;20032;-83
2022/03/08 07:28:19;;;;;;;17.40;10.52;;;0.30;99.90;;;;;;6213627;23;20104;-84
2022/03/08 07:31:21;;;;;;;16.95;10.68;;;0.60;99.90;;;;;;6215460;23;20047;-85
2022/03/08 07:34:08;;;;;;;18.85;9.80;;;0.90;99.90;;;;;;6212852;23;20455;-84
2022/03/08 07:36:57;;;;;;;14.35;9.18;;;1.00;99.90;;;;;;6193258;23;20028;-84
2022/03/08 07:39:45;;;;;;;18.60;9.70;;;1.20;99.90;;;;;;6172580;23;20029;-86
2022/03/08 07:42:32;;;;;;;18.42;9.80;;;1.60;99.90;;;;;;6213863;23;20025;-85
2022/03/08 07:45:23;;;;;;;21.23;11.93;;;2.10;99.90;;;;;;6193967;23;20029;-85
2022/03/08 07:48:11;;;;;;;19.55;9.88;;;2.60;99.90;;;;;;6213820;23;20028;-85
2022/03/08 07:50:59;;;;;;;16.02;10.45;;;3.10;99.90;;;;;;6215230;23;20101;-85
2022/03/08 07:53:48;;;;;;;17.88;10.85;;;3.50;99.90;;;;;;6214006;23;20101;-86
2022/03/08 07:56:38;;;;;;;14.10;10.07;;;3.80;99.90;;;;;;6193280;23;20020;-85
2022/03/08 07:59:26;;;;;;;20.70;9.30;;;3.60;1.00;;;;;;6213978;23;20099;-85
2022/03/08 08:02:21;;;;;;;16.10;9.10;;;3.60;99.90;;;;;;6215476;23;20447;-85
2022/03/08 08:05:09;;;;;;;17.50;10.10;;;4.30;99.90;;;;;;6215373;23;20032;-85
2022/03/08 08:07:59;;;;;;;17.23;9.20;;;4.50;54.50;;;;;;6214854;23;20028;-86
2022/03/08 08:10:47;;;;;;;12.07;8.80;;;4.50;56.40;;;;;;6214639;23;20435;-87
2022/03/08 08:13:35;;;;;;;14.05;9.82;;;4.60;60.30;;;;;;6212006;23;20031;-86
2022/03/08 08:16:23;;;;;;;20.02;9.23;;;5.30;58.80;;;;;;6214217;23;20532;-87
2022/03/08 08:19:11;;;;;;;18.33;9.05;;;5.50;57.80;;;;;;6213969;23;20028;-85
2022/03/08 08:21:59;;;;;;;13.02;9.05;;;5.70;58.10;;;;;;6213253;23;20021;-85
2022/03/08 08:24:54;;;;;;;14.73;9.52;;;5.80;57.00;;;;;;6195139;23;20032;-84
2022/03/08 08:27:45;;;;;;;10.93;8.57;;;5.70;57.10;;;;;;6214894;23;20332;-88
2022/03/08 08:30:35;;;;;;;13.80;8.70;;;5.80;57.20;;;;;;6194190;23;20028;-86
2022/03/08 08:33:23;;;;;;;14.23;9.38;;;5.90;57.60;;;;;;6213498;23;20090;-88
2022/03/08 08:36:11;;;;;;;13.57;8.95;;;6.30;56.50;;;;;;6214176;23;20020;-87
2022/03/08 08:39:00;;;;;;;11.70;8.27;;;6.30;56.40;;;;;;6215283;23;20024;-86
2022/03/08 08:41:51;;;;;;;11.60;8.73;;;6.40;55.60;;;;;;6193559;23;20108;-85
2022/03/08 08:44:41;;;;;;;13.40;9.10;;;6.20;55.10;;;;;;6212222;23;20383;-85
2022/03/08 08:47:31;;;;;;;12.05;8.93;;;6.20;55.90;;;;;;6214646;23;20029;-86
2022/03/08 08:50:18;;;;;;;14.65;9.82;;;6.40;55.40;;;;;;6193481;23;20753;-87
2022/03/08 08:53:06;;;;;;;13.52;9.70;;;6.30;55.10;;;;;;6191593;23;20385;-86
2022/03/08 08:55:54;;;;;;;11.30;8.70;;;5.70;56.30;;;;;;6213526;23;20029;-88
2022/03/08 08:58:42;;;;;;;11.63;9.05;;;5.70;57.20;;;;;;6193471;23;20408;-86
2022/03/08 09:01:33;;;;;;;13.27;9.20;;;5.50;57.00;;;;;;6213204;23;20335;-88
2022/03/08 09:04:23;;;;;;;11.25;8.88;;;5.40;57.50;;;;;;6219676;23;20025;-88
2022/03/08 09:07:11;;;;;;;13.82;9.30;;;5.90;56.50;;;;;;6215804;23;20025;-86
2022/03/08 09:09:58;;;;;;;12.75;9.20;;;5.60;55.40;;;;;;6214269;23;20029;-86
2022/03/08 09:13:05;;;;;;;18.80;9.55;;;5.60;56.00;;;;;;6214527;23;20102;-86
2022/03/08 09:15:56;;;;;;;10.68;8.65;;;5.90;55.80;;;;;;6214442;23;20031;-85
2022/03/08 09:18:44;;;;;;;11.02;8.55;;;6.30;54.60;;;;;;6193781;23;20047;-85
2022/03/08 09:21:32;;;;;;;11.77;8.45;;;5.90;54.50;;;;;;6212696;23;20296;-85
2022/03/08 09:24:22;;;;;;;10.15;7.72;;;6.00;55.30;;;;;;6196151;23;20024;-86
2022/03/08 09:27:22;;;;;;;11.60;7.57;;;6.50;54.10;;;;;;6196400;23;20052;-87
2022/03/08 09:30:10;;;;;;;12.82;7.03;;;7.20;51.50;;;;;;6195185;23;20036;-88
2022/03/08 09:32:59;;;;;;;9.13;6.28;;;7.80;49.70;;;;;;6197632;23;20293;-87
2022/03/08 09:35:47;;;;;;;10.82;7.00;;;8.20;47.20;;;;;;6228504;23;20039;-88
2022/03/08 09:38:35;;;;;;;11.52;7.25;;;8.50;48.70;;;;;;6209425;23;20024;-86
2022/03/08 09:41:23;;;;;;;10.10;6.55;;;8.80;46.00;;;;;;6227670;23;20020;-88
2022/03/08 09:44:14;;;;;;;9.23;6.70;;;8.60;45.50;;;;;;6230412;23;20044;-85
2022/03/08 09:47:02;;;;;;;9.10;6.47;;;8.70;46.00;;;;;;6204978;23;20130;-87
2022/03/08 09:49:53;;;;;;;11.07;6.97;;;9.20;45.30;;;;;;6216678;23;20102;-88
2022/03/08 09:52:42;;;;;;;9.70;6.93;;;10.00;44.20;;;;;;6216295;23;20363;-88
2022/03/08 09:55:30;;;;;;;9.88;6.90;;;10.40;42.40;;;;;;6216315;23;20628;-86
2022/03/08 09:58:20;;;;;;;10.15;6.40;;;10.60;41.60;;;;;;6216394;23;20407;-88
2022/03/08 10:01:17;;;;;;;10.50;7.32;;;10.40;40.90;;;;;;6196192;23;20051;-88
2022/03/08 10:04:09;;;;;;;9.13;6.57;;;9.80;41.80;;;;;;6216081;23;20063;-87
2022/03/08 10:07:22;;;;;;;8.70;6.40;;;9.50;43.90;;;;;;6198504;23;20048;-87
2022/03/08 10:10:10;;;;;;;8.73;6.28;;;10.40;42.50;;;;;;6194682;23;20170;-87
2022/03/08 10:13:20;;;;;;;12.35;6.82;;;10.90;40.80;;;;;;6201344;23;20040;-88
2022/03/08 10:16:27;;;;;;;8.43;6.30;;;11.40;40.90;;;;;;6195799;23;20068;-89
2022/03/08 10:19:15;;;;;;;11.15;6.70;;;12.00;38.40;;;;;;6216688;23;20343;-87
2022/03/08 10:22:34;;;;;;;10.90;6.25;;;11.50;38.40;;;;;;6214529;23;20099;-88
2022/03/08 10:25:26;;;;;;;12.20;5.65;;;11.40;39.40;;;;;;6215459;23;20396;-87
2022/03/08 10:28:14;;;;;;;8.07;6.53;;;11.50;37.40;;;;;;6215110;23;20024;-86
2022/03/08 10:31:17;;;;;;;11.15;5.97;;;10.80;38.70;;;;;;6196070;23;20036;-88
2022/03/08 10:34:15;;;;;;;11.18;6.40;;;10.80;39.40;;;;;;6195358;23;20055;-87
2022/03/08 10:37:19;;;;;;;7.30;5.40;;;11.30;38.90;;;;;;6216753;23;20020;-89
2022/03/08 10:40:20;;;;;;;10.00;6.07;;;12.30;38.40;;;;;;6195353;23;20020;-87
2022/03/08 10:43:30;;;;;;;;;;;;;;;;;;;;;
2022/03/08 10:46:29;;;;;;;12.63;5.97;;;12.70;36.10;;;;;;6221078;23;20029;-87
2022/03/08 10:49:18;;;;;;;;;;;11.90;36.30;;;;;;6227665;23;20029;-88
2022/03/08 10:52:10;;;;;;;8.73;5.95;;;11.50;38.50;;;;;;6229232;23;19919;-88
2022/03/08 10:55:30;;;;;;;10.35;6.22;;;12.20;37.10;;;;;;6178852;23;20553;-87
2022/03/08 10:58:28;;;;;;;8.35;5.95;;;12.80;35.40;;;;;;6196856;23;20463;-87
2022/03/08 11:01:21;;;;;;;10.07;5.63;;;12.80;34.60;;;;;;6175658;23;20053;-85
2022/03/08 11:04:22;;;;;;;12.70;5.93;;;12.00;35.70;;;;;;6158850;23;20062;-86
2022/03/08 11:07:14;;;;;;;10.13;6.05;;;12.00;35.60;;;;;;6175892;23;20044;-88
2022/03/08 11:10:11;;;;;;;7.45;5.72;;;12.40;34.50;;;;;;6179426;23;20118;-88
2022/03/08 11:13:07;;;;;;;9.82;5.93;;;12.00;34.50;;;;;;6206751;23;20024;-86
2022/03/08 11:15:56;;;;;;;10.63;6.47;;;11.30;35.40;;;;;;6234829;23;20032;-86
2022/03/08 11:19:06;;;;;;;8.80;5.82;;;10.90;37.20;;;;;;6232084;23;20120;-88
2022/03/08 11:21:57;;;;;;;6.97;5.68;;;11.50;37.00;;;;;;6224666;23;20090;-87
2022/03/08 11:25:01;;;;;;;8.63;6.03;;;12.00;35.20;;;;;;6224582;23;20027;-89
2022/03/08 11:27:49;;;;;;;9.52;5.70;;;12.30;35.10;;;;;;6226976;23;20032;-88
2022/03/08 11:30:52;;;;;;;7.30;5.40;;;12.60;34.20;;;;;;6229508;23;20025;-86
2022/03/08 11:33:51;;;;;;;7.63;5.68;;;13.30;33.00;;;;;;6224755;23;20036;-88
2022/03/08 11:36:53;;;;;;;6.95;5.45;;;12.30;33.60;;;;;;6209801;23;20016;-88
2022/03/08 11:40:12;;;;;;;9.68;6.13;;;12.50;33.10;;;;;;6227761;23;20076;-88
2022/03/08 11:43:04;;;;;;;10.85;6.28;;;12.80;33.30;;;;;;6202484;23;20102;-87
2022/03/08 11:46:20;;;;;;;9.00;5.90;;;12.20;33.60;;;;;;6209486;23;20020;-89
2022/03/08 11:49:12;;;;;;;8.15;6.15;;;12.40;34.30;;;;;;6233183;23;20020;-89
2022/03/08 11:52:34;;;;;;;6.10;4.60;;;13.20;33.20;;;;;;6231954;23;20075;-87
2022/03/08 11:55:26;;;;;;;9.13;6.18;;;13.60;30.70;;;;;;6228376;23;20084;-90
2022/03/08 11:58:20;;;;;;;8.30;6.38;;;14.80;32.00;;;;;;6202598;23;20020;-89
2022/03/08 12:01:22;;;;;;;7.30;6.13;;;14.10;30.80;;;;;;6225728;23;20027;-89
2022/03/08 12:04:19;;;;;;;8.20;6.47;;;13.90;32.30;;;;;;6199216;23;20032;-89
2022/03/08 12:07:25;;;;;;;8.05;6.05;;;14.60;29.80;;;;;;6224587;23;20032;-89
2022/03/08 12:10:29;;;;;;;9.70;6.93;;;15.20;29.20;;;;;;6224320;23;20036;-89
2022/03/08 12:13:36;;;;;;;9.10;6.43;;;15.20;28.70;;;;;;6207983;23;20036;-88
2022/03/08 12:16:30;;;;;;;10.38;6.50;;;16.30;28.80;;;;;;6231647;23;20021;-88
2022/03/08 12:19:34;;;;;;;9.25;6.95;;;16.10;28.20;;;;;;6234795;23;20017;-86
2022/03/08 12:22:25;;;;;;;9.70;6.45;;;14.70;29.20;;;;;;6223675;23;20048;-89
2022/03/08 12:25:15;;;;;;;9.20;6.65;;;14.50;30.00;;;;;;6199974;23;20084;-89
2022/03/08 12:28:03;;;;;;;9.75;7.07;;;14.40;29.90;;;;;;6202176;23;20024;-88
2022/03/08 12:31:06;;;;;;;12.80;6.72;;;13.60;30.60;;;;;;6222702;23;20044;-89
2022/03/08 12:34:12;;;;;;;10.07;7.00;;;14.10;30.20;;;;;;6207283;23;20059;-88
2022/03/08 12:37:26;;;;;;;8.45;7.07;;;13.70;30.30;;;;;;6210089;23;20021;-89
2022/03/08 12:40:19;;;;;;;11.13;7.57;;;13.50;30.70;;;;;;6224132;23;20020;-89
2022/03/08 12:43:11;;;;;;;10.23;6.95;;;13.70;30.30;;;;;;6200680;23;20031;-89
2022/03/08 12:46:04;;;;;;;11.55;6.90;;;13.60;31.30;;;;;;6200336;23;20024;-88
2022/03/08 12:48:53;;;;;;;9.60;6.55;;;14.00;30.50;;;;;;6202624;23;20393;-91
2022/03/08 12:51:44;;;;;;;9.70;7.10;;;15.50;29.00;;;;;;6181026;23;20086;-89
2022/03/08 12:54:35;;;;;;;10.80;6.97;;;16.30;27.70;;;;;;6220716;23;20031;-89
2022/03/08 12:57:24;;;;;;;12.43;7.35;;;15.80;27.40;;;;;;6222437;23;20017;-89
2022/03/08 13:00:43;;;;;;;8.40;7.07;;;15.20;29.40;;;;;;6214316;23;20024;-90
2022/03/08 13:03:36;;;;;;;11.18;6.25;;;15.60;28.40;;;;;;6201094;23;20100;-88
2022/03/08 13:06:26;;;;;;;8.95;6.10;;;16.60;28.60;;;;;;6223168;23;20029;-87
2022/03/08 13:09:13;;;;;;;8.23;6.18;;;17.20;26.80;;;;;;6220985;23;20044;-88
2022/03/08 13:12:17;;;;;;;10.15;6.70;;;16.60;27.50;;;;;;6222162;23;20114;-89
2022/03/08 13:15:16;;;;;;;9.48;7.32;;;17.50;26.50;;;;;;6218879;23;20075;-88
2022/03/08 13:18:07;;;;;;;10.32;7.13;;;17.00;26.90;;;;;;6225010;23;20448;-89
2022/03/08 13:21:02;;;;;;;10.25;6.38;;;16.60;26.50;;;;;;6218882;23;20025;-87
2022/03/08 13:23:50;;;;;;;9.48;7.20;;;16.30;28.10;;;;;;6179660;23;20565;-89
2022/03/08 13:26:50;;;;;;;10.75;7.30;;;16.60;27.40;;;;;;6225308;23;20029;-88
2022/03/08 13:29:39;;;;;;;12.82;7.28;;;16.90;28.00;;;;;;6219707;23;20079;-88
2022/03/08 13:32:30;;;;;;;11.05;7.03;;;16.80;27.50;;;;;;6220236;23;20063;-86
2022/03/08 13:35:18;;;;;;;13.23;7.57;;;16.50;27.60;;;;;;6181415;23;20332;-89
2022/03/08 13:38:15;;;;;;;14.50;8.20;;;15.80;28.50;;;;;;6200709;23;20080;-87
2022/03/08 13:41:15;;;;;;;12.32;7.97;;;15.00;29.00;;;;;;6206820;23;20021;-86
2022/03/08 13:44:13;;;;;;;13.30;7.60;;;15.00;29.00;;;;;;6226668;23;20052;-88
2022/03/08 13:47:01;;;;;;;10.95;7.55;;;14.70;29.00;;;;;;6200427;23;20032;-88
2022/03/08 13:49:48;;;;;;;11.18;7.07;;;14.90;29.00;;;;;;6218842;23;20028;-87
2022/03/08 13:52:36;;;;;;;8.88;6.82;;;15.30;29.00;;;;;;6199566;23;20037;-87
2022/03/08 13:55:29;;;;;;;10.43;7.22;;;16.30;27.50;;;;;;6203015;23;20025;-89
2022/03/08 13:58:44;;;;;;;9.15;7.82;;;17.10;27.00;;;;;;6200576;23;20114;-88
2022/03/08 14:01:32;;;;;;;14.38;6.68;;;16.60;27.00;;;;;;6218676;23;20025;-88
2022/03/08 14:04:27;;;;;;;10.70;6.95;;;16.10;27.70;;;;;;6225737;23;20120;-88
2022/03/08 14:07:28;;;;;;;9.60;6.32;;;15.90;28.00;;;;;;6204600;23;20098;-86
2022/03/08 14:10:19;;;;;;;11.98;7.00;;;16.10;27.70;;;;;;6202579;23;20025;-88
2022/03/08 14:13:12;;;;;;;9.75;6.93;;;16.20;27.60;;;;;;6223420;23;20127;-87
2022/03/08 14:16:08;;;;;;;11.38;5.95;;;16.20;27.80;;;;;;6202635;23;20071;-87
2022/03/08 14:19:00;;;;;;;9.63;6.13;;;17.30;26.00;;;;;;6224688;23;20076;-88
2022/03/08 14:21:50;;;;;;;10.13;6.25;;;17.80;25.00;;;;;;6220268;23;20056;-89
2022/03/08 14:24:37;;;;;;;9.35;6.07;;;17.50;26.00;;;;;;6198112;23;20021;-88
2022/03/08 14:27:25;;;;;;;8.10;5.68;;;17.70;26.00;;;;;;6197729;23;20404;-87
2022/03/08 14:30:23;;;;;;;7.88;6.25;;;17.30;25.40;;;;;;6177291;23;20051;-88
2022/03/08 14:33:16;;;;;;;10.10;6.40;;;16.50;26.60;;;;;;6218637;23;20328;-89
2022/03/08 14:36:04;;;;;;;8.48;5.82;;;16.50;26.20;;;;;;6219971;23;20104;-89
2022/03/08 14:38:53;;;;;;;12.63;5.93;;;17.10;26.50;;;;;;6219233;23;20017;-89
2022/03/08 14:42:18;;;;;;;12.35;5.70;;;18.10;25.20;;;;;;6220007;23;20025;-88